Time;durP1;ratioP1;P1;durP2;ratioP2;P2;SDS_P1;SDS_P2;PMS_P1;PMS_P2;Temp;Humidity;BMP_temperature;BMP_pressure;BME280_temperature;BME280_humidity;BME280_pressure;Samples;Min_cycle;Max_cycle;Signal;HPM_P1;HPM_P2
2023/05/09 00:00:09;;;;;;;1.90;1.52;;;;;;;23.15;38.97;101140.66;41642373;28;20081;-85
2023/05/09 00:20:18;;;;;;;1.73;1.50;;;;;;;23.21;38.81;101132.31;41612192;28;20045;-86
2023/05/09 00:40:20;;;;;;;1.88;1.52;;;;;;;23.21;38.68;101116.47;41553971;28;20056;-85
2023/05/09 01:00:30;;;;;;;1.80;1.70;;;;;;;23.20;38.53;101109.50;41640895;28;20046;-83
2023/05/09 01:20:45;;;;;;;1.40;1.30;;;;;;;23.15;38.56;101114.25;41534519;28;20049;-84
2023/05/09 01:40:51;;;;;;;2.75;1.60;;;;;;;23.12;38.59;101117.97;41541863;28;20072;-84
2023/05/09 02:00:54;;;;;;;1.60;1.50;;;;;;;23.13;38.51;101100.31;41549557;28;20041;-84
2023/05/09 02:20:54;;;;;;;2.35;1.52;;;;;;;23.11;38.48;101086.41;41574225;28;20096;-81
2023/05/09 02:40:56;;;;;;;1.58;1.48;;;;;;;23.06;38.34;101078.81;41554263;28;20111;-83
2023/05/09 03:00:57;;;;;;;2.42;1.52;;;;;;;23.05;38.40;101073.66;41486890;28;20038;-83
2023/05/09 03:20:58;;;;;;;5.38;1.58;;;;;;;23.01;38.29;101067.75;41529816;28;20489;-84
2023/05/09 03:41:00;;;;;;;3.03;1.70;;;;;;;23.00;38.40;101081.91;41553467;28;20057;-83
2023/05/09 04:01:06;;;;;;;1.88;1.60;;;;;;;23.07;38.38;101091.06;41606285;28;20953;-81
2023/05/09 04:21:08;;;;;;;1.75;1.63;;;;;;;23.13;38.29;101087.97;41622555;28;20038;-84
2023/05/09 04:41:08;;;;;;;1.90;1.60;;;;;;;23.15;38.49;101079.91;41508265;28;20050;-84
2023/05/09 05:01:09;;;;;;;2.08;1.73;;;;;;;23.25;38.16;101093.31;41609588;28;20516;-83
2023/05/09 05:21:09;;;;;;;1.70;1.50;;;;;;;23.29;38.11;101095.59;41652292;28;20099;-83
2023/05/09 05:41:10;;;;;;;4.22;1.70;;;;;;;23.41;38.31;101098.28;41540137;28;20408;-89
2023/05/09 06:01:10;;;;;;;3.10;2.00;;;;;;;23.41;38.67;101096.47;41578771;28;20022;-81
2023/05/09 06:21:11;;;;;;;5.60;2.00;;;;;;;23.43;38.64;101094.53;41553622;28;20108;-83
2023/05/09 06:41:11;;;;;;;5.22;2.53;;;;;;;23.38;39.08;101087.94;41509491;28;20117;-83
2023/05/09 07:01:12;;;;;;;4.20;2.67;;;;;;;23.36;38.58;101068.72;41626904;28;20644;-85
2023/05/09 07:21:12;;;;;;;4.13;3.00;;;;;;;23.23;39.24;101052.94;41587886;28;20045;-86
2023/05/09 07:41:12;;;;;;;8.50;3.97;;;;;;;23.06;39.51;101025.13;41631681;28;20048;-86
2023/05/09 08:01:13;;;;;;;12.32;5.03;;;;;;;23.04;39.04;101014.66;41581366;28;20038;-88
2023/05/09 08:21:13;;;;;;;9.93;5.10;;;;;;;23.07;39.05;100995.97;41685898;28;20053;-87
2023/05/09 08:41:26;;;;;;;11.02;5.95;;;;;;;23.11;38.69;100988.66;41689783;28;20041;-87
2023/05/09 09:01:28;;;;;;;11.23;7.32;;;;;;;23.10;38.78;100968.47;41671001;28;20194;-87
2023/05/09 09:21:31;;;;;;;11.25;7.82;;;;;;;23.07;38.52;100953.69;41691930;28;20049;-87
2023/05/09 09:41:37;;;;;;;10.50;6.78;;;;;;;23.13;38.31;100958.50;41705024;28;20037;-86
2023/05/09 10:01:57;;;;;;;13.45;6.88;;;;;;;23.19;38.23;100944.00;41698663;28;20052;-87
2023/05/09 10:22:04;;;;;;;10.02;6.63;;;;;;;23.34;38.68;100931.44;41637092;28;20105;-84
2023/05/09 10:42:06;;;;;;;10.82;7.65;;;;;;;23.50;39.33;100917.84;41520533;28;20548;-77
2023/05/09 11:02:17;;;;;;;9.07;5.15;;;;;;;23.63;38.22;100902.69;41560765;28;20041;-78
2023/05/09 11:22:25;;;;;;;5.32;4.15;;;;;;;23.83;38.34;100889.66;41485115;28;20042;-76
2023/05/09 11:42:30;;;;;;;9.18;4.38;;;;;;;23.86;37.72;100878.81;41491832;28;20541;-85
2023/05/09 12:02:30;;;;;;;2.58;1.55;;;;;;;23.70;32.58;100865.19;41517247;28;20057;-77
2023/05/09 12:22:36;;;;;;;2.75;1.40;;;;;;;23.74;31.82;100841.03;41508667;28;20072;-80
2023/05/09 12:42:38;;;;;;;3.63;1.23;;;;;;;23.60;29.51;100834.19;41496810;28;20456;-81
2023/05/09 13:02:40;;;;;;;2.35;1.00;;;;;;;23.59;30.05;100802.59;41547320;28;20037;-81
2023/05/09 13:22:42;;;;;;;1.40;1.02;;;;;;;23.46;30.64;100782.44;41518693;28;20062;-82
2023/05/09 13:42:43;;;;;;;1.00;0.95;;;;;;;23.43;30.62;100769.47;41550156;28;20099;-78
2023/05/09 14:02:43;;;;;;;6.95;0.90;;;;;;;23.33;31.04;100732.38;41459846;28;20111;-81
2023/05/09 14:22:44;;;;;;;4.30;1.05;;;;;;;23.69;33.09;100721.56;41532708;28;20058;-87
2023/05/09 14:42:47;;;;;;;1.83;1.20;;;;;;;23.74;33.75;100700.03;41775630;23;20080;-95
2023/05/09 15:02:48;;;;;;;2.72;1.33;;;;;;;23.91;35.13;100691.53;41389302;28;20104;-91
2023/05/09 15:22:49;;;;;;;1.25;1.00;;;;;;;24.52;34.84;100679.31;41422495;28;20038;-88
2023/05/09 15:42:50;;;;;;;4.00;1.17;;;;;;;24.33;34.84;100663.34;41452113;28;20103;-89
2023/05/09 16:02:59;;;;;;;2.58;1.20;;;;;;;24.59;34.82;100639.91;41446070;28;20139;-79
2023/05/09 16:22:59;;;;;;;14.77;5.95;;;;;;;24.52;35.78;100644.88;41364529;28;20650;-82
2023/05/09 16:43:00;;;;;;;11.32;4.68;;;;;;;24.33;36.13;100632.44;41361524;28;20062;-81
2023/05/09 17:03:00;;;;;;;33.35;11.48;;;;;;;24.32;37.10;100614.88;41362188;28;20050;-80
2023/05/09 17:23:01;;;;;;;15.25;6.70;;;;;;;24.09;35.88;100622.19;41359328;28;20081;-84
2023/05/09 17:43:03;;;;;;;11.43;5.70;;;;;;;24.06;37.11;100615.34;41363522;28;20042;-80
2023/05/09 18:03:03;;;;;;;13.15;4.20;;;;;;;24.00;38.60;100618.53;41380936;28;20107;-81
2023/05/09 18:23:04;;;;;;;10.43;4.07;;;;;;;23.94;38.82;100619.88;41372701;28;20497;-77
2023/05/09 18:43:10;;;;;;;12.00;3.75;;;;;;;23.87;39.33;100646.97;41340283;28;20117;-75
2023/05/09 19:03:11;;;;;;;8.50;3.58;;;;;;;23.85;39.41;100659.47;41350677;28;20045;-84
2023/05/09 19:23:11;;;;;;;9.25;2.92;;;;;;;23.78;39.54;100649.41;41408199;28;20046;-86
2023/05/09 19:43:12;;;;;;;7.10;2.78;;;;;;;23.66;39.13;100640.69;41404442;28;20165;-83
2023/05/09 20:03:13;;;;;;;6.53;2.60;;;;;;;23.61;39.23;100636.78;41368147;28;20063;-83
2023/05/09 20:23:13;;;;;;;6.32;2.53;;;;;;;23.56;39.17;100639.81;41402793;28;20053;-82
2023/05/09 20:43:14;;;;;;;4.03;1.88;;;;;;;23.53;39.05;100618.91;41397736;28;20052;-84
2023/05/09 21:03:15;;;;;;;4.57;2.33;;;;;;;23.48;39.08;100619.28;41395400;28;20061;-83
2023/05/09 21:23:25;;;;;;;2.83;1.80;;;;;;;23.41;39.02;100601.44;41397765;28;20039;-81
2023/05/09 21:43:27;;;;;;;3.60;1.80;;;;;;;23.35;39.27;100597.50;41409195;28;20065;-82
2023/05/09 22:03:28;;;;;;;4.50;1.80;;;;;;;23.28;39.59;100594.53;41387509;28;20054;-84
2023/05/09 22:23:29;;;;;;;2.63;1.52;;;;;;;23.20;39.90;100593.50;41389733;28;20050;-84
2023/05/09 22:43:30;;;;;;;2.88;1.70;;;;;;;23.16;39.85;100584.97;41376056;28;20045;-84
2023/05/09 23:03:31;;;;;;;2.67;1.50;;;;;;;23.12;39.91;100587.00;41393296;28;20046;-87
2023/05/09 23:23:32;;;;;;;2.45;1.40;;;;;;;23.08;40.05;100579.47;41386803;28;20073;-85
2023/05/09 23:43:33;;;;;;;1.30;1.20;;;;;;;23.05;40.57;100574.44;41397459;28;20409;-86
